createdAt,value
2019-03-22T00:00:29.618Z,100.00
2019-03-22T00:02:58.350Z,100.00
2019-03-22T00:05:26.919Z,100.00
2019-03-22T00:07:55.558Z,100.00
2019-03-22T00:10:24.127Z,100.00
2019-03-22T00:12:52.807Z,100.00
2019-03-22T00:15:21.442Z,100.00
2019-03-22T00:17:50.015Z,100.00
2019-03-22T00:20:18.690Z,100.00
2019-03-22T00:22:47.231Z,100.00
2019-03-22T00:25:15.887Z,100.00
2019-03-22T00:27:44.456Z,100.00
2019-03-22T00:30:13.237Z,100.00
2019-03-22T00:32:41.912Z,100.00
2019-03-22T00:35:10.751Z,100.00
2019-03-22T00:37:39.396Z,100.00
2019-03-22T00:40:09.437Z,100.00
2019-03-22T00:42:38.076Z,100.00
2019-03-22T00:45:08.755Z,100.00
2019-03-22T00:47:37.403Z,100.00
2019-03-22T00:50:11.275Z,100.00
2019-03-22T00:52:39.874Z,100.00
2019-03-22T00:55:08.527Z,100.00
2019-03-22T00:57:37.360Z,100.00
2019-03-22T01:00:11.229Z,100.00
2019-03-22T01:02:39.874Z,100.00
2019-03-22T01:05:09.105Z,100.00
2019-03-22T01:07:37.746Z,100.00
2019-03-22T01:10:15.295Z,100.00
2019-03-22T01:12:43.954Z,100.00
2019-03-22T01:15:14.206Z,100.00
2019-03-22T01:17:43.180Z,100.00
2019-03-22T01:20:12.712Z,100.00
2019-03-22T01:22:42.348Z,100.00
2019-03-22T01:25:11.855Z,100.00
2019-03-22T01:27:41.387Z,100.00
2019-03-22T01:30:15.842Z,100.00
2019-03-22T01:32:44.480Z,100.00
2019-03-22T01:35:13.110Z,100.00
2019-03-22T01:37:41.805Z,100.00
2019-03-22T01:40:12.248Z,100.00
2019-03-22T01:42:40.905Z,100.00
2019-03-22T01:45:12.188Z,100.00
2019-03-22T01:47:40.862Z,100.00
2019-03-22T01:50:14.969Z,100.00
2019-03-22T01:52:43.610Z,100.00
2019-03-22T01:55:12.245Z,100.00
2019-03-22T01:57:52.003Z,100.00
2019-03-22T02:00:14.285Z,100.00
2019-03-22T02:02:42.931Z,100.00
2019-03-22T02:05:11.667Z,100.00
2019-03-22T02:07:40.349Z,100.00
2019-03-22T02:10:13.100Z,100.00
2019-03-22T02:12:41.765Z,100.00
2019-03-22T02:15:15.554Z,100.00
2019-03-22T02:17:44.431Z,100.00
2019-03-22T02:20:18.648Z,100.00
2019-03-22T02:22:47.320Z,100.00
2019-03-22T02:25:15.948Z,100.00
2019-03-22T02:27:44.636Z,100.00
2019-03-22T02:30:15.477Z,100.00
2019-03-22T02:32:44.149Z,100.00
2019-03-22T02:35:27.451Z,100.00
2019-03-22T02:37:43.290Z,100.00
2019-03-22T02:40:13.658Z,100.00
2019-03-22T02:42:42.219Z,100.00
2019-03-22T02:45:13.302Z,100.00
2019-03-22T02:47:41.942Z,100.00
2019-03-22T02:50:18.605Z,100.00
2019-03-22T02:52:45.962Z,100.00
2019-03-22T02:55:14.658Z,100.00
2019-03-22T02:57:43.308Z,100.00
2019-03-22T03:00:16.837Z,100.00
2019-03-22T03:02:45.912Z,100.00
2019-03-22T03:05:14.871Z,100.00
2019-03-22T03:07:43.623Z,100.00
2019-03-22T03:10:14.681Z,100.00
2019-03-22T03:12:44.369Z,100.00
2019-03-22T03:15:19.805Z,100.00
2019-03-22T03:17:48.546Z,100.00
2019-03-22T03:20:18.646Z,100.00
2019-03-22T03:22:50.114Z,100.00
2019-03-22T03:25:19.161Z,100.00
2019-03-22T03:27:47.717Z,100.00
2019-03-22T03:30:20.243Z,100.00
2019-03-22T03:32:48.995Z,100.00
2019-03-22T03:35:18.050Z,100.00
2019-03-22T03:37:46.693Z,100.00
2019-03-22T03:40:16.793Z,100.00
2019-03-22T03:42:45.385Z,100.00
2019-03-22T03:45:28.806Z,100.00
2019-03-22T03:47:57.901Z,100.00
2019-03-22T03:50:26.468Z,100.00
2019-03-22T03:52:55.033Z,100.00
2019-03-22T03:55:23.574Z,100.00
2019-03-22T03:57:52.065Z,100.00
2019-03-22T04:00:20.658Z,100.00
2019-03-22T04:02:49.277Z,100.00
2019-03-22T04:05:17.955Z,100.00
2019-03-22T04:07:46.507Z,100.00
2019-03-22T04:10:15.157Z,100.00
2019-03-22T04:12:43.746Z,100.00
2019-03-22T04:15:13.054Z,100.00
2019-03-22T04:17:41.664Z,100.00
2019-03-22T04:20:11.048Z,100.00
2019-03-22T04:22:39.732Z,100.00
2019-03-22T04:25:08.461Z,100.00
2019-03-22T04:27:37.109Z,100.00
2019-03-22T04:30:08.867Z,100.00
2019-03-22T04:32:37.501Z,100.00
2019-03-22T04:35:07.339Z,100.00
2019-03-22T04:37:36.015Z,100.00
2019-03-22T04:40:10.259Z,100.00
2019-03-22T04:42:38.887Z,100.00
2019-03-22T04:45:07.572Z,100.00
2019-03-22T04:47:36.903Z,100.00
2019-03-22T04:50:06.435Z,100.00
2019-03-22T04:52:35.084Z,100.00
2019-03-22T04:55:04.612Z,100.00
2019-03-22T04:57:34.051Z,100.00
2019-03-22T05:00:03.082Z,100.00
2019-03-22T05:02:32.258Z,100.00
2019-03-22T05:05:00.997Z,100.00
2019-03-22T05:07:29.946Z,100.00
2019-03-22T05:09:59.225Z,100.00
2019-03-22T05:12:28.153Z,100.00
2019-03-22T05:14:58.198Z,100.00
2019-03-22T05:17:27.727Z,100.00
2019-03-22T05:19:58.005Z,100.00
2019-03-22T05:22:29.481Z,100.00
2019-03-22T05:25:00.130Z,100.00
2019-03-22T05:27:30.308Z,100.00
2019-03-22T05:30:00.585Z,100.00
2019-03-22T05:32:29.230Z,100.00
2019-03-22T05:34:57.728Z,100.00
2019-03-22T05:37:26.409Z,100.00
2019-03-22T05:39:55.048Z,100.00
2019-03-22T05:42:23.670Z,100.00
2019-03-22T05:44:52.233Z,100.00
2019-03-22T05:47:20.835Z,100.00
2019-03-22T05:49:49.467Z,100.00
2019-03-22T05:52:17.999Z,100.00
2019-03-22T05:54:46.533Z,100.00
2019-03-22T05:57:15.102Z,100.00
2019-03-22T05:59:43.735Z,100.00
2019-03-22T06:02:18.565Z,100.00
2019-03-22T06:04:49.347Z,100.00
2019-03-22T06:07:18.053Z,100.00
2019-03-22T06:09:46.768Z,100.00
2019-03-22T06:12:15.446Z,100.00
2019-03-22T06:14:45.673Z,100.00
2019-03-22T06:17:14.444Z,100.00
2019-03-22T06:19:43.246Z,100.00
2019-03-22T06:22:12.255Z,100.00
2019-03-22T06:24:40.938Z,100.00
2019-03-22T06:27:11.268Z,99.52
2019-03-22T06:29:39.920Z,100.00
2019-03-22T06:32:08.813Z,95.97
2019-03-22T06:34:37.542Z,92.76
2019-03-22T06:37:06.490Z,91.76
2019-03-22T06:39:35.312Z,88.74
2019-03-22T06:42:04.269Z,82.32
2019-03-22T06:44:33.176Z,76.71
2019-03-22T06:47:02.030Z,66.71
2019-03-22T06:49:30.842Z,63.78
2019-03-22T06:51:59.476Z,58.90
2019-03-22T06:54:31.842Z,55.90
2019-03-22T06:57:01.547Z,55.46
2019-03-22T06:59:30.202Z,51.44
2019-03-22T07:01:58.955Z,51.44
2019-03-22T07:04:27.635Z,49.27
2019-03-22T07:06:58.207Z,48.05
2019-03-22T07:09:27.102Z,46.13
2019-03-22T07:11:56.011Z,44.29
2019-03-22T07:14:24.738Z,43.26
2019-03-22T07:16:53.433Z,41.05
2019-03-22T07:19:23.711Z,40.55
2019-03-22T07:21:52.364Z,40.39
2019-03-22T07:24:24.089Z,41.31
2019-03-22T07:26:55.180Z,40.82
2019-03-22T07:29:24.120Z,39.17
2019-03-22T07:31:52.875Z,39.51
2019-03-22T07:34:21.899Z,40.61
2019-03-22T07:36:50.802Z,39.62
2019-03-22T07:39:19.785Z,38.07
2019-03-22T07:41:48.863Z,36.91
2019-03-22T07:44:17.730Z,38.17
2019-03-22T07:46:46.612Z,40.67
2019-03-22T07:49:15.361Z,38.98
2019-03-22T07:51:44.368Z,38.11
2019-03-22T07:54:14.493Z,37.99
2019-03-22T07:56:43.245Z,37.63
2019-03-22T07:59:11.933Z,38.15
2019-03-22T08:01:40.531Z,38.44
2019-03-22T08:04:09.102Z,36.60
2019-03-22T08:06:37.669Z,36.98
2019-03-22T08:09:09.956Z,36.03
2019-03-22T08:11:39.314Z,34.65
2019-03-22T08:14:07.955Z,36.30
2019-03-22T08:19:04.149Z,34.96
2019-03-22T08:21:32.959Z,32.41
2019-03-22T08:24:01.784Z,34.53
2019-03-22T08:26:30.542Z,35.13
2019-03-22T08:28:59.395Z,34.02
2019-03-22T08:31:29.781Z,34.01
2019-03-22T08:33:58.903Z,35.91
2019-03-22T08:36:27.679Z,36.49
2019-03-22T08:38:57.893Z,35.06
2019-03-22T08:41:26.664Z,34.68
2019-03-22T08:43:55.416Z,34.21
2019-03-22T08:46:24.386Z,35.49
2019-03-22T08:48:54.664Z,34.29
2019-03-22T08:51:23.510Z,34.53
2019-03-22T08:53:55.444Z,33.79
2019-03-22T08:56:23.002Z,33.30
2019-03-22T08:58:51.762Z,32.14
2019-03-22T09:01:24.865Z,32.06
2019-03-22T09:03:53.714Z,29.35
2019-03-22T09:06:22.349Z,27.93
2019-03-22T09:08:50.847Z,29.26
2019-03-22T09:11:19.576Z,30.75
2019-03-22T09:13:49.264Z,29.64
2019-03-22T09:16:20.573Z,27.83
2019-03-22T09:18:50.992Z,27.71
2019-03-22T09:21:22.363Z,29.09
2019-03-22T09:23:51.519Z,26.79
2019-03-22T09:26:23.443Z,26.04
2019-03-22T09:28:52.434Z,26.60
2019-03-22T09:31:21.413Z,26.30
2019-03-22T09:33:50.051Z,25.71
2019-03-22T09:36:18.715Z,25.55
2019-03-22T09:38:47.463Z,25.16
2019-03-22T09:41:16.436Z,26.23
2019-03-22T09:43:45.155Z,28.25
2019-03-22T09:46:13.869Z,27.74
2019-03-22T09:48:42.978Z,25.35
2019-03-22T09:51:11.645Z,24.87
2019-03-22T09:53:42.950Z,23.46
2019-03-22T09:56:11.562Z,24.06
2019-03-22T09:58:40.180Z,26.85
2019-03-22T10:01:22.627Z,24.90
2019-03-22T10:03:42.524Z,23.82
2019-03-22T10:06:10.253Z,23.36
2019-03-22T10:08:41.265Z,24.48
2019-03-22T10:11:09.776Z,25.50
2019-03-22T10:13:38.371Z,25.50
2019-03-22T10:16:07.002Z,23.68
2019-03-22T10:18:37.003Z,23.23
2019-03-22T10:21:05.722Z,24.21
2019-03-22T10:23:34.289Z,23.40
2019-03-22T10:26:02.908Z,21.50
2019-03-22T10:28:31.716Z,20.75
2019-03-22T10:31:00.250Z,21.45
2019-03-22T10:33:28.783Z,22.65
2019-03-22T10:35:57.458Z,21.02
2019-03-22T10:38:31.860Z,19.67
2019-03-22T10:40:56.529Z,20.06
2019-03-22T10:43:25.339Z,18.73
2019-03-22T10:45:54.353Z,18.79
2019-03-22T10:48:23.158Z,19.19
2019-03-22T10:50:52.812Z,19.82
2019-03-22T10:53:21.873Z,20.57
2019-03-22T10:55:51.302Z,20.45
2019-03-22T10:58:21.783Z,21.00
2019-03-22T11:00:50.694Z,21.08
2019-03-22T11:03:44.738Z,20.84
2019-03-22T11:06:35.912Z,20.99
2019-03-22T11:09:40.662Z,21.33
2019-03-22T11:12:28.894Z,19.38
2019-03-22T11:15:36.480Z,19.51
2019-03-22T11:18:24.363Z,21.51
2019-03-22T11:21:29.465Z,20.70
2019-03-22T11:24:17.529Z,20.70
2019-03-22T11:27:22.456Z,20.55
2019-03-22T11:30:13.244Z,18.81
2019-03-22T11:33:17.836Z,18.47
2019-03-22T11:36:06.069Z,20.78
2019-03-22T11:39:15.737Z,20.73
2019-03-22T11:41:43.073Z,20.07
2019-03-22T11:44:14.533Z,20.23
2019-03-22T11:46:43.313Z,22.35
2019-03-22T11:49:12.327Z,21.39
2019-03-22T11:51:41.115Z,19.41
2019-03-22T11:54:10.043Z,21.01
2019-03-22T11:56:43.177Z,20.47
2019-03-22T11:59:12.096Z,21.85
2019-03-22T12:01:41.074Z,20.98
2019-03-22T12:04:11.857Z,20.62
2019-03-22T12:06:45.774Z,20.64
2019-03-22T12:09:14.679Z,20.69
2019-03-22T12:11:43.672Z,20.90
2019-03-22T12:14:14.546Z,19.07
2019-03-22T12:16:43.317Z,21.01
2019-03-22T12:19:14.201Z,21.20
2019-03-22T12:21:42.484Z,19.31
2019-03-22T12:24:13.972Z,17.94
2019-03-22T12:26:47.904Z,18.01
2019-03-22T12:29:16.330Z,17.92
2019-03-22T12:31:45.073Z,19.04
2019-03-22T12:34:13.837Z,18.00
2019-03-22T12:36:42.731Z,18.60
2019-03-22T12:39:11.617Z,17.98
2019-03-22T12:41:40.517Z,18.55
2019-03-22T12:44:09.248Z,19.26
2019-03-22T12:46:39.608Z,19.58
2019-03-22T12:49:08.251Z,19.83
2019-03-22T12:51:37.197Z,19.93
2019-03-22T12:54:09.202Z,19.06
2019-03-22T12:56:39.570Z,19.52
2019-03-22T12:59:08.429Z,18.71
2019-03-22T13:01:37.521Z,18.64
2019-03-22T13:04:06.203Z,18.98
2019-03-22T13:06:34.987Z,17.07
2019-03-22T13:09:06.395Z,17.50
2019-03-22T13:11:34.915Z,18.32
2019-03-22T13:14:03.509Z,18.91
2019-03-22T13:16:32.038Z,19.50
2019-03-22T13:19:00.855Z,19.44
2019-03-22T13:21:29.508Z,19.47
2019-03-22T13:23:58.336Z,18.99
2019-03-22T13:26:26.996Z,19.13
2019-03-22T13:28:55.752Z,18.35
2019-03-22T13:31:24.453Z,17.94
2019-03-22T13:33:53.296Z,19.21
2019-03-22T13:36:21.984Z,19.06
2019-03-22T13:38:50.723Z,18.42
2019-03-22T13:41:19.466Z,19.48
2019-03-22T13:43:48.304Z,19.32
2019-03-22T13:46:20.001Z,19.03
2019-03-22T13:48:48.591Z,18.58
2019-03-22T13:51:17.412Z,18.26
2019-03-22T13:53:46.145Z,17.96
2019-03-22T13:56:16.234Z,19.06
2019-03-22T13:58:44.997Z,17.89
2019-03-22T14:01:13.769Z,19.02
2019-03-22T14:03:42.479Z,19.86
2019-03-22T14:06:11.286Z,20.35
2019-03-22T14:08:43.024Z,19.88
2019-03-22T14:11:11.834Z,19.21
2019-03-22T14:13:40.646Z,19.39
2019-03-22T14:16:09.208Z,19.98
2019-03-22T14:18:37.704Z,19.89
2019-03-22T14:21:06.338Z,19.58
2019-03-22T14:23:35.039Z,21.11
2019-03-22T14:26:06.450Z,21.42
2019-03-22T14:28:34.944Z,22.58
2019-03-22T14:31:03.595Z,22.76
2019-03-22T14:33:32.218Z,22.91
2019-03-22T14:36:03.462Z,22.72
2019-03-22T14:38:31.950Z,23.37
2019-03-22T14:41:00.619Z,24.72
2019-03-22T14:43:29.110Z,25.50
2019-03-22T14:45:57.715Z,25.97
2019-03-22T14:48:26.265Z,25.19
2019-03-22T14:50:54.837Z,26.24
2019-03-22T14:53:23.523Z,26.73
2019-03-22T14:55:52.082Z,26.64
2019-03-22T14:58:20.654Z,27.33
2019-03-22T15:00:49.415Z,28.02
2019-03-22T15:03:24.494Z,29.40
2019-03-22T15:05:54.320Z,31.00
2019-03-22T15:08:23.252Z,31.11
2019-03-22T15:10:53.302Z,32.85
2019-03-22T15:13:23.497Z,33.50
2019-03-22T15:16:09.787Z,34.33
2019-03-22T15:18:56.088Z,34.72
2019-03-22T15:21:42.765Z,35.49
2019-03-22T15:24:27.709Z,35.84
2019-03-22T15:27:14.531Z,36.25
2019-03-22T15:29:50.392Z,36.84
2019-03-22T15:32:20.604Z,38.19
2019-03-22T15:34:56.625Z,37.82
2019-03-22T15:37:38.646Z,38.99
2019-03-22T15:40:08.885Z,39.47
2019-03-22T15:42:37.510Z,39.88
2019-03-22T15:45:08.876Z,40.91
2019-03-22T15:47:37.422Z,41.96
2019-03-22T15:50:08.662Z,42.63
2019-03-22T15:52:37.335Z,42.63
2019-03-22T15:55:07.431Z,44.30
2019-03-22T15:57:35.994Z,44.30
2019-03-22T16:00:07.585Z,44.69
2019-03-22T16:02:36.219Z,45.70
2019-03-22T16:05:07.414Z,47.37
2019-03-22T16:07:36.072Z,47.99
2019-03-22T16:10:07.252Z,48.77
2019-03-22T16:12:35.884Z,49.97
2019-03-22T16:15:07.136Z,50.94
2019-03-22T16:17:35.724Z,52.54
2019-03-22T16:20:06.951Z,53.41
2019-03-22T16:22:35.621Z,55.66
2019-03-22T16:25:06.652Z,56.12
2019-03-22T16:27:35.244Z,57.94
2019-03-22T16:30:06.487Z,59.79
2019-03-22T16:32:35.240Z,60.36
2019-03-22T16:35:05.662Z,62.61
2019-03-22T16:37:34.416Z,63.71
2019-03-22T16:40:07.087Z,64.72
2019-03-22T16:42:35.768Z,65.87
2019-03-22T16:45:06.895Z,66.21
2019-03-22T16:47:35.918Z,66.51
2019-03-22T16:50:16.820Z,68.20
2019-03-22T16:52:45.452Z,68.43
2019-03-22T16:55:14.290Z,69.49
2019-03-22T16:57:42.943Z,69.68
2019-03-22T17:00:11.711Z,70.52
2019-03-22T17:02:40.371Z,72.24
2019-03-22T17:05:09.402Z,73.43
2019-03-22T17:07:38.161Z,75.07
2019-03-22T17:10:08.234Z,75.64
2019-03-22T17:12:36.892Z,76.64
2019-03-22T17:15:07.658Z,76.85
2019-03-22T17:17:36.597Z,77.66
2019-03-22T17:20:07.055Z,77.81
2019-03-22T17:22:35.777Z,78.97
2019-03-22T17:25:06.229Z,79.79
2019-03-22T17:27:34.979Z,79.51
2019-03-22T17:30:04.913Z,80.07
2019-03-22T17:32:33.626Z,80.58
2019-03-22T17:35:02.420Z,81.17
2019-03-22T17:37:31.158Z,81.48
2019-03-22T17:39:59.834Z,82.15
2019-03-22T17:42:28.590Z,83.20
2019-03-22T17:44:57.374Z,83.86
2019-03-22T17:47:26.085Z,85.94
2019-03-22T17:49:54.858Z,86.79
2019-03-22T17:52:23.571Z,89.05
2019-03-22T17:54:52.231Z,89.55
2019-03-22T17:57:20.867Z,91.03
2019-03-22T17:59:52.786Z,92.23
2019-03-22T18:02:21.433Z,92.80
2019-03-22T18:04:50.211Z,93.45
2019-03-22T18:07:18.928Z,95.04
2019-03-22T18:09:50.677Z,98.45
2019-03-22T18:12:19.449Z,100.00
2019-03-22T18:14:48.243Z,100.00
2019-03-22T18:17:17.011Z,100.00
2019-03-22T18:19:45.783Z,100.00
2019-03-22T18:22:14.555Z,100.00
2019-03-22T18:24:43.268Z,100.00
2019-03-22T18:27:11.999Z,100.00
2019-03-22T18:29:40.585Z,100.00
2019-03-22T18:32:09.298Z,100.00
2019-03-22T18:34:38.037Z,100.00
2019-03-22T18:37:06.800Z,100.00
2019-03-22T18:39:35.575Z,100.00
2019-03-22T18:42:04.327Z,100.00
2019-03-22T18:44:33.071Z,100.00
2019-03-22T18:47:01.883Z,100.00
2019-03-22T18:49:30.598Z,100.00
2019-03-22T18:51:59.336Z,100.00
2019-03-22T18:54:27.996Z,100.00
2019-03-22T18:56:56.764Z,100.00
2019-03-22T18:59:25.476Z,100.00
2019-03-22T19:01:54.212Z,100.00
2019-03-22T19:04:22.935Z,100.00
2019-03-22T19:06:54.467Z,100.00
2019-03-22T19:09:23.182Z,100.00
2019-03-22T19:11:51.771Z,100.00
2019-03-22T19:14:20.535Z,100.00
2019-03-22T19:16:49.272Z,100.00
2019-03-22T19:19:18.049Z,100.00
2019-03-22T19:21:46.824Z,100.00
2019-03-22T19:24:15.486Z,100.00
2019-03-22T19:26:44.203Z,100.00
2019-03-22T19:29:12.985Z,100.00
2019-03-22T19:31:44.387Z,100.00
2019-03-22T19:34:13.144Z,100.00
2019-03-22T19:36:41.866Z,100.00
2019-03-22T19:39:10.625Z,100.00
2019-03-22T19:41:39.338Z,100.00
2019-03-22T19:44:08.100Z,100.00
2019-03-22T19:46:36.839Z,100.00
2019-03-22T19:49:05.557Z,100.00
2019-03-22T19:51:34.285Z,100.00
2019-03-22T19:54:03.026Z,100.00
2019-03-22T19:56:31.778Z,100.00
2019-03-22T19:59:00.500Z,100.00
2019-03-22T20:01:29.278Z,100.00
2019-03-22T20:03:58.001Z,100.00
2019-03-22T20:06:26.721Z,100.00
2019-03-22T20:08:55.482Z,100.00
2019-03-22T20:11:24.234Z,100.00
2019-03-22T20:13:56.037Z,100.00
2019-03-22T20:16:24.756Z,100.00
2019-03-22T20:18:53.523Z,100.00
2019-03-22T20:21:22.232Z,100.00
2019-03-22T20:23:54.029Z,100.00
2019-03-22T20:26:22.713Z,100.00
2019-03-22T20:28:51.475Z,100.00
2019-03-22T20:31:20.192Z,100.00
2019-03-22T20:33:48.911Z,100.00
2019-03-22T20:36:20.459Z,100.00
2019-03-22T20:38:49.181Z,100.00
2019-03-22T20:41:17.910Z,100.00
2019-03-22T20:43:46.635Z,100.00
2019-03-22T20:46:16.798Z,100.00
2019-03-22T20:48:45.559Z,100.00
2019-03-22T20:51:14.275Z,100.00
2019-03-22T20:53:42.988Z,100.00
2019-03-22T20:56:11.715Z,100.00
2019-03-22T20:58:40.470Z,100.00
2019-03-22T21:01:09.241Z,100.00
2019-03-22T21:03:38.003Z,100.00
2019-03-22T21:06:06.720Z,100.00
2019-03-22T21:08:35.507Z,100.00
2019-03-22T21:11:04.312Z,100.00
2019-03-22T21:13:32.950Z,100.00
2019-03-22T21:16:01.515Z,100.00
2019-03-22T21:18:30.149Z,100.00
2019-03-22T21:20:58.825Z,100.00
2019-03-22T21:23:36.008Z,100.00
2019-03-22T21:25:57.800Z,100.00
2019-03-22T21:28:26.359Z,100.00
2019-03-22T21:30:55.010Z,100.00
2019-03-22T21:33:23.499Z,100.00
2019-03-22T21:35:52.028Z,100.00
2019-03-22T21:38:23.501Z,100.00
2019-03-22T21:40:52.099Z,100.00
2019-03-22T21:43:22.053Z,100.00
2019-03-22T21:45:50.760Z,100.00
2019-03-22T21:48:19.401Z,100.00
2019-03-22T21:50:48.074Z,100.00
2019-03-22T21:53:16.643Z,100.00
2019-03-22T21:55:45.147Z,100.00
2019-03-22T21:58:13.782Z,100.00
2019-03-22T22:00:42.466Z,100.00
2019-03-22T22:03:11.088Z,100.00
2019-03-22T22:05:47.428Z,100.00
2019-03-22T22:08:10.223Z,100.00
2019-03-22T22:10:38.921Z,100.00
2019-03-22T22:13:07.561Z,100.00
2019-03-22T22:15:36.173Z,100.00
2019-03-22T22:18:04.803Z,100.00
2019-03-22T22:20:33.492Z,100.00
2019-03-22T22:23:04.903Z,100.00
2019-03-22T22:25:33.386Z,100.00
2019-03-22T22:28:01.988Z,100.00
2019-03-22T22:33:19.080Z,100.00
2019-03-22T22:35:57.964Z,100.00
2019-03-22T22:38:17.897Z,100.00
2019-03-22T22:40:46.389Z,100.00
2019-03-22T22:43:14.989Z,100.00
2019-03-22T22:45:43.624Z,100.00
2019-03-22T22:48:12.334Z,100.00
2019-03-22T22:50:40.946Z,100.00
2019-03-22T22:53:09.501Z,100.00
2019-03-22T22:55:38.641Z,100.00
2019-03-22T22:58:07.250Z,100.00
2019-03-22T23:00:36.100Z,100.00
2019-03-22T23:03:04.976Z,100.00
2019-03-22T23:05:33.475Z,100.00
2019-03-22T23:08:02.061Z,100.00
2019-03-22T23:10:30.699Z,100.00
2019-03-22T23:12:59.270Z,100.00
2019-03-22T23:15:27.826Z,100.00
2019-03-22T23:17:56.360Z,100.00
2019-03-22T23:20:24.964Z,100.00
2019-03-22T23:22:53.451Z,100.00
2019-03-22T23:25:22.130Z,100.00
2019-03-22T23:27:50.777Z,100.00
2019-03-22T23:30:19.409Z,100.00
2019-03-22T23:32:48.053Z,100.00
2019-03-22T23:35:16.769Z,100.00
2019-03-22T23:37:45.403Z,100.00
2019-03-22T23:40:14.280Z,100.00
2019-03-22T23:42:42.835Z,100.00
2019-03-22T23:45:14.524Z,100.00
2019-03-22T23:47:43.159Z,100.00
2019-03-22T23:50:11.803Z,100.00
2019-03-22T23:52:43.509Z,100.00
2019-03-22T23:55:12.289Z,100.00
2019-03-22T23:57:40.874Z,100.00
